sensor_id;sensor_type;location;lat;lon;timestamp;P1;durP1;ratioP1;P2;durP2;ratioP2
56893;SDS011;43392;50.078;13.704;2024-03-17T00:01:07;9.60;;;5.38;;
56893;SDS011;43392;50.078;13.704;2024-03-17T00:03:33;10.40;;;4.40;;
56893;SDS011;43392;50.078;13.704;2024-03-17T00:05:59;14.30;;;6.47;;
56893;SDS011;43392;50.078;13.704;2024-03-17T00:08:27;11.07;;;5.38;;
56893;SDS011;43392;50.078;13.704;2024-03-17T00:10:56;13.38;;;6.00;;
56893;SDS011;43392;50.078;13.704;2024-03-17T00:13:22;12.52;;;6.75;;
56893;SDS011;43392;50.078;13.704;2024-03-17T00:15:49;18.77;;;8.55;;
56893;SDS011;43392;50.078;13.704;2024-03-17T00:18:16;14.40;;;7.20;;
56893;SDS011;43392;50.078;13.704;2024-03-17T00:20:42;11.88;;;5.97;;
56893;SDS011;43392;50.078;13.704;2024-03-17T00:23:09;13.57;;;6.47;;
56893;SDS011;43392;50.078;13.704;2024-03-17T00:25:37;9.70;;;5.50;;
56893;SDS011;43392;50.078;13.704;2024-03-17T00:28:04;11.50;;;4.75;;
56893;SDS011;43392;50.078;13.704;2024-03-17T00:30:30;14.18;;;5.45;;
56893;SDS011;43392;50.078;13.704;2024-03-17T00:32:57;14.95;;;6.80;;
56893;SDS011;43392;50.078;13.704;2024-03-17T00:35:23;19.13;;;8.50;;
56893;SDS011;43392;50.078;13.704;2024-03-17T00:37:50;18.75;;;9.88;;
56893;SDS011;43392;50.078;13.704;2024-03-17T00:40:16;13.57;;;6.82;;
56893;SDS011;43392;50.078;13.704;2024-03-17T00:42:44;17.67;;;7.10;;
56893;SDS011;43392;50.078;13.704;2024-03-17T00:45:10;14.05;;;6.45;;
56893;SDS011;43392;50.078;13.704;2024-03-17T00:47:37;14.88;;;6.15;;
56893;SDS011;43392;50.078;13.704;2024-03-17T00:50:03;26.20;;;9.77;;
56893;SDS011;43392;50.078;13.704;2024-03-17T00:52:32;28.42;;;10.70;;
56893;SDS011;43392;50.078;13.704;2024-03-17T00:54:58;14.40;;;5.80;;
56893;SDS011;43392;50.078;13.704;2024-03-17T00:57:25;13.98;;;6.45;;
56893;SDS011;43392;50.078;13.704;2024-03-17T00:59:51;27.48;;;10.25;;
56893;SDS011;43392;50.078;13.704;2024-03-17T01:02:17;47.55;;;17.55;;
56893;SDS011;43392;50.078;13.704;2024-03-17T01:04:43;30.60;;;12.15;;
56893;SDS011;43392;50.078;13.704;2024-03-17T01:07:11;44.97;;;16.73;;
56893;SDS011;43392;50.078;13.704;2024-03-17T01:09:37;48.50;;;17.30;;
56893;SDS011;43392;50.078;13.704;2024-03-17T01:12:04;48.15;;;17.67;;
56893;SDS011;43392;50.078;13.704;2024-03-17T01:14:30;64.57;;;21.90;;
56893;SDS011;43392;50.078;13.704;2024-03-17T01:16:58;52.25;;;19.98;;
56893;SDS011;43392;50.078;13.704;2024-03-17T01:19:24;52.95;;;18.25;;
56893;SDS011;43392;50.078;13.704;2024-03-17T01:21:51;31.25;;;11.68;;
56893;SDS011;43392;50.078;13.704;2024-03-17T01:24:17;28.38;;;10.52;;
56893;SDS011;43392;50.078;13.704;2024-03-17T01:26:44;35.50;;;12.50;;
56893;SDS011;43392;50.078;13.704;2024-03-17T01:29:10;31.13;;;11.93;;
56893;SDS011;43392;50.078;13.704;2024-03-17T01:31:37;31.50;;;13.20;;
56893;SDS011;43392;50.078;13.704;2024-03-17T01:34:02;27.70;;;12.38;;
56893;SDS011;43392;50.078;13.704;2024-03-17T01:36:29;23.88;;;10.55;;
56893;SDS011;43392;50.078;13.704;2024-03-17T01:38:54;23.85;;;10.40;;
56893;SDS011;43392;50.078;13.704;2024-03-17T01:41:21;22.90;;;10.38;;
56893;SDS011;43392;50.078;13.704;2024-03-17T01:43:46;19.98;;;7.85;;
56893;SDS011;43392;50.078;13.704;2024-03-17T01:46:14;27.73;;;12.23;;
56893;SDS011;43392;50.078;13.704;2024-03-17T01:48:42;60.28;;;30.75;;
56893;SDS011;43392;50.078;13.704;2024-03-17T01:51:08;36.78;;;20.20;;
56893;SDS011;43392;50.078;13.704;2024-03-17T01:53:36;36.05;;;17.52;;
56893;SDS011;43392;50.078;13.704;2024-03-17T01:56:05;41.00;;;17.77;;
56893;SDS011;43392;50.078;13.704;2024-03-17T01:58:35;29.13;;;13.65;;
56893;SDS011;43392;50.078;13.704;2024-03-17T02:01:02;21.33;;;10.73;;
56893;SDS011;43392;50.078;13.704;2024-03-17T02:03:29;17.80;;;8.50;;
56893;SDS011;43392;50.078;13.704;2024-03-17T02:05:57;27.75;;;12.55;;
56893;SDS011;43392;50.078;13.704;2024-03-17T02:08:23;47.10;;;21.05;;
56893;SDS011;43392;50.078;13.704;2024-03-17T02:10:53;37.97;;;18.50;;
56893;SDS011;43392;50.078;13.704;2024-03-17T02:13:20;30.20;;;13.60;;
56893;SDS011;43392;50.078;13.704;2024-03-17T02:15:46;43.65;;;17.88;;
56893;SDS011;43392;50.078;13.704;2024-03-17T02:18:13;42.30;;;16.02;;
56893;SDS011;43392;50.078;13.704;2024-03-17T02:20:39;14.35;;;5.97;;
56893;SDS011;43392;50.078;13.704;2024-03-17T02:23:23;13.52;;;6.00;;
56893;SDS011;43392;50.078;13.704;2024-03-17T02:25:51;17.77;;;7.20;;
56893;SDS011;43392;50.078;13.704;2024-03-17T02:28:18;20.05;;;8.68;;
56893;SDS011;43392;50.078;13.704;2024-03-17T02:30:44;17.52;;;7.55;;
56893;SDS011;43392;50.078;13.704;2024-03-17T02:33:10;26.83;;;12.27;;
56893;SDS011;43392;50.078;13.704;2024-03-17T02:35:36;26.70;;;13.27;;
56893;SDS011;43392;50.078;13.704;2024-03-17T02:38:02;21.10;;;11.57;;
56893;SDS011;43392;50.078;13.704;2024-03-17T02:40:28;13.88;;;4.80;;
56893;SDS011;43392;50.078;13.704;2024-03-17T02:42:54;8.68;;;3.22;;
56893;SDS011;43392;50.078;13.704;2024-03-17T02:45:21;6.47;;;2.25;;
56893;SDS011;43392;50.078;13.704;2024-03-17T02:47:47;6.32;;;2.03;;
56893;SDS011;43392;50.078;13.704;2024-03-17T02:50:14;10.68;;;3.47;;
56893;SDS011;43392;50.078;13.704;2024-03-17T02:52:41;10.30;;;4.88;;
56893;SDS011;43392;50.078;13.704;2024-03-17T02:55:07;12.43;;;5.15;;
56893;SDS011;43392;50.078;13.704;2024-03-17T02:57:34;11.00;;;5.15;;
56893;SDS011;43392;50.078;13.704;2024-03-17T03:00:01;11.48;;;5.03;;
56893;SDS011;43392;50.078;13.704;2024-03-17T03:02:29;11.18;;;4.80;;
56893;SDS011;43392;50.078;13.704;2024-03-17T03:04:55;18.00;;;5.85;;
56893;SDS011;43392;50.078;13.704;2024-03-17T03:07:22;9.68;;;4.40;;
56893;SDS011;43392;50.078;13.704;2024-03-17T03:09:48;11.48;;;4.93;;
56893;SDS011;43392;50.078;13.704;2024-03-17T03:12:16;12.60;;;5.68;;
56893;SDS011;43392;50.078;13.704;2024-03-17T03:14:43;11.30;;;5.57;;
56893;SDS011;43392;50.078;13.704;2024-03-17T03:17:09;19.40;;;8.13;;
56893;SDS011;43392;50.078;13.704;2024-03-17T03:19:36;20.00;;;7.55;;
56893;SDS011;43392;50.078;13.704;2024-03-17T03:22:02;37.25;;;14.73;;
56893;SDS011;43392;50.078;13.704;2024-03-17T03:24:29;42.08;;;16.58;;
56893;SDS011;43392;50.078;13.704;2024-03-17T03:26:55;41.30;;;17.85;;
56893;SDS011;43392;50.078;13.704;2024-03-17T03:29:21;52.00;;;21.38;;
56893;SDS011;43392;50.078;13.704;2024-03-17T03:31:48;41.30;;;17.83;;
56893;SDS011;43392;50.078;13.704;2024-03-17T03:34:15;44.53;;;17.95;;
56893;SDS011;43392;50.078;13.704;2024-03-17T03:36:41;26.75;;;10.70;;
56893;SDS011;43392;50.078;13.704;2024-03-17T03:39:08;28.45;;;12.45;;
56893;SDS011;43392;50.078;13.704;2024-03-17T03:41:36;24.13;;;11.15;;
56893;SDS011;43392;50.078;13.704;2024-03-17T03:44:03;22.15;;;10.15;;
56893;SDS011;43392;50.078;13.704;2024-03-17T03:46:29;22.42;;;10.48;;
56893;SDS011;43392;50.078;13.704;2024-03-17T03:48:56;15.80;;;7.22;;
56893;SDS011;43392;50.078;13.704;2024-03-17T03:51:22;9.98;;;3.67;;
56893;SDS011;43392;50.078;13.704;2024-03-17T03:53:50;8.70;;;3.55;;
56893;SDS011;43392;50.078;13.704;2024-03-17T03:56:17;8.82;;;3.65;;
56893;SDS011;43392;50.078;13.704;2024-03-17T03:58:43;8.73;;;3.90;;
56893;SDS011;43392;50.078;13.704;2024-03-17T04:01:11;8.68;;;4.80;;
56893;SDS011;43392;50.078;13.704;2024-03-17T04:03:40;7.50;;;4.45;;
56893;SDS011;43392;50.078;13.704;2024-03-17T04:06:09;7.70;;;3.35;;
56893;SDS011;43392;50.078;13.704;2024-03-17T04:08:38;5.88;;;2.75;;
56893;SDS011;43392;50.078;13.704;2024-03-17T04:11:06;8.30;;;2.85;;
56893;SDS011;43392;50.078;13.704;2024-03-17T04:13:32;7.47;;;3.10;;
56893;SDS011;43392;50.078;13.704;2024-03-17T04:16:00;7.28;;;2.92;;
56893;SDS011;43392;50.078;13.704;2024-03-17T04:18:28;8.27;;;3.42;;
56893;SDS011;43392;50.078;13.704;2024-03-17T04:20:56;6.50;;;2.97;;
56893;SDS011;43392;50.078;13.704;2024-03-17T04:23:23;8.45;;;3.17;;
56893;SDS011;43392;50.078;13.704;2024-03-17T04:25:50;9.57;;;3.90;;
56893;SDS011;43392;50.078;13.704;2024-03-17T04:28:17;9.60;;;4.35;;
56893;SDS011;43392;50.078;13.704;2024-03-17T04:30:44;9.02;;;4.07;;
56893;SDS011;43392;50.078;13.704;2024-03-17T04:33:11;15.45;;;4.35;;
56893;SDS011;43392;50.078;13.704;2024-03-17T04:35:38;11.27;;;4.03;;
56893;SDS011;43392;50.078;13.704;2024-03-17T04:38:05;14.48;;;4.22;;
56893;SDS011;43392;50.078;13.704;2024-03-17T04:40:39;8.48;;;4.03;;
56893;SDS011;43392;50.078;13.704;2024-03-17T04:43:07;14.35;;;4.22;;
56893;SDS011;43392;50.078;13.704;2024-03-17T04:45:34;20.65;;;8.77;;
56893;SDS011;43392;50.078;13.704;2024-03-17T04:48:01;20.45;;;8.25;;
56893;SDS011;43392;50.078;13.704;2024-03-17T04:50:28;18.25;;;8.02;;
56893;SDS011;43392;50.078;13.704;2024-03-17T04:52:57;18.27;;;7.97;;
56893;SDS011;43392;50.078;13.704;2024-03-17T04:55:24;16.45;;;7.68;;
56893;SDS011;43392;50.078;13.704;2024-03-17T04:57:50;17.70;;;7.47;;
56893;SDS011;43392;50.078;13.704;2024-03-17T05:00:17;18.52;;;8.05;;
56893;SDS011;43392;50.078;13.704;2024-03-17T05:02:43;21.85;;;10.38;;
56893;SDS011;43392;50.078;13.704;2024-03-17T05:05:10;21.67;;;9.57;;
56893;SDS011;43392;50.078;13.704;2024-03-17T05:07:36;22.85;;;9.05;;
56893;SDS011;43392;50.078;13.704;2024-03-17T05:10:03;25.02;;;10.43;;
56893;SDS011;43392;50.078;13.704;2024-03-17T05:12:31;32.00;;;14.65;;
56893;SDS011;43392;50.078;13.704;2024-03-17T05:14:57;28.10;;;13.20;;
56893;SDS011;43392;50.078;13.704;2024-03-17T05:17:24;23.40;;;11.73;;
56893;SDS011;43392;50.078;13.704;2024-03-17T05:19:50;27.67;;;10.98;;
56893;SDS011;43392;50.078;13.704;2024-03-17T05:22:17;16.80;;;7.97;;
56893;SDS011;43392;50.078;13.704;2024-03-17T05:24:43;21.73;;;10.15;;
56893;SDS011;43392;50.078;13.704;2024-03-17T05:27:10;22.05;;;11.07;;
56893;SDS011;43392;50.078;13.704;2024-03-17T05:29:36;29.70;;;14.15;;
56893;SDS011;43392;50.078;13.704;2024-03-17T05:32:03;25.92;;;12.73;;
56893;SDS011;43392;50.078;13.704;2024-03-17T05:34:31;25.95;;;11.10;;
56893;SDS011;43392;50.078;13.704;2024-03-17T05:36:58;21.33;;;8.98;;
56893;SDS011;43392;50.078;13.704;2024-03-17T05:39:24;10.38;;;5.43;;
56893;SDS011;43392;50.078;13.704;2024-03-17T05:41:51;11.30;;;5.70;;
56893;SDS011;43392;50.078;13.704;2024-03-17T05:44:18;9.77;;;4.70;;
56893;SDS011;43392;50.078;13.704;2024-03-17T05:46:44;11.15;;;4.20;;
56893;SDS011;43392;50.078;13.704;2024-03-17T05:49:10;8.82;;;4.22;;
56893;SDS011;43392;50.078;13.704;2024-03-17T05:51:37;14.75;;;6.22;;
56893;SDS011;43392;50.078;13.704;2024-03-17T05:54:03;28.95;;;12.63;;
56893;SDS011;43392;50.078;13.704;2024-03-17T05:56:30;32.10;;;14.63;;
56893;SDS011;43392;50.078;13.704;2024-03-17T05:58:56;36.67;;;14.90;;
56893;SDS011;43392;50.078;13.704;2024-03-17T06:01:23;37.55;;;18.80;;
56893;SDS011;43392;50.078;13.704;2024-03-17T06:03:49;32.55;;;14.63;;
56893;SDS011;43392;50.078;13.704;2024-03-17T06:06:16;27.25;;;12.63;;
56893;SDS011;43392;50.078;13.704;2024-03-17T06:08:42;19.05;;;9.73;;
56893;SDS011;43392;50.078;13.704;2024-03-17T06:11:09;11.68;;;5.13;;
56893;SDS011;43392;50.078;13.704;2024-03-17T06:13:37;8.50;;;4.35;;
56893;SDS011;43392;50.078;13.704;2024-03-17T06:16:03;12.15;;;5.82;;
56893;SDS011;43392;50.078;13.704;2024-03-17T06:18:30;19.48;;;9.05;;
56893;SDS011;43392;50.078;13.704;2024-03-17T06:20:57;17.95;;;8.60;;
56893;SDS011;43392;50.078;13.704;2024-03-17T06:23:24;16.15;;;7.43;;
56893;SDS011;43392;50.078;13.704;2024-03-17T06:25:52;17.80;;;7.72;;
56893;SDS011;43392;50.078;13.704;2024-03-17T06:28:19;15.07;;;6.72;;
56893;SDS011;43392;50.078;13.704;2024-03-17T06:30:47;8.43;;;3.88;;
56893;SDS011;43392;50.078;13.704;2024-03-17T06:33:21;8.05;;;3.47;;
56893;SDS011;43392;50.078;13.704;2024-03-17T06:35:48;7.18;;;3.17;;
56893;SDS011;43392;50.078;13.704;2024-03-17T06:38:15;8.02;;;3.38;;
56893;SDS011;43392;50.078;13.704;2024-03-17T06:40:42;13.90;;;6.25;;
56893;SDS011;43392;50.078;13.704;2024-03-17T06:43:14;15.82;;;6.82;;
56893;SDS011;43392;50.078;13.704;2024-03-17T06:45:40;15.90;;;7.30;;
56893;SDS011;43392;50.078;13.704;2024-03-17T06:48:06;13.18;;;6.28;;
56893;SDS011;43392;50.078;13.704;2024-03-17T06:50:33;13.55;;;4.95;;
56893;SDS011;43392;50.078;13.704;2024-03-17T06:52:59;10.27;;;4.20;;
56893;SDS011;43392;50.078;13.704;2024-03-17T06:55:26;9.60;;;4.10;;
56893;SDS011;43392;50.078;13.704;2024-03-17T06:57:53;10.45;;;5.30;;
56893;SDS011;43392;50.078;13.704;2024-03-17T07:00:19;13.40;;;5.53;;
56893;SDS011;43392;50.078;13.704;2024-03-17T07:02:50;9.98;;;5.05;;
56893;SDS011;43392;50.078;13.704;2024-03-17T07:05:16;11.27;;;5.07;;
56893;SDS011;43392;50.078;13.704;2024-03-17T07:07:44;13.35;;;5.88;;
56893;SDS011;43392;50.078;13.704;2024-03-17T07:10:11;14.77;;;6.00;;
56893;SDS011;43392;50.078;13.704;2024-03-17T07:12:39;10.80;;;5.20;;
56893;SDS011;43392;50.078;13.704;2024-03-17T07:15:05;12.52;;;4.63;;
56893;SDS011;43392;50.078;13.704;2024-03-17T07:17:33;10.65;;;4.63;;
56893;SDS011;43392;50.078;13.704;2024-03-17T07:20:00;8.68;;;4.00;;
56893;SDS011;43392;50.078;13.704;2024-03-17T07:22:28;12.02;;;3.92;;
56893;SDS011;43392;50.078;13.704;2024-03-17T07:24:55;13.70;;;4.30;;
56893;SDS011;43392;50.078;13.704;2024-03-17T07:27:25;18.33;;;8.13;;
56893;SDS011;43392;50.078;13.704;2024-03-17T07:29:52;20.58;;;10.60;;
56893;SDS011;43392;50.078;13.704;2024-03-17T07:32:18;21.35;;;9.88;;
56893;SDS011;43392;50.078;13.704;2024-03-17T07:34:45;17.63;;;9.43;;
56893;SDS011;43392;50.078;13.704;2024-03-17T07:37:11;12.77;;;5.35;;
56893;SDS011;43392;50.078;13.704;2024-03-17T07:39:38;13.15;;;5.40;;
56893;SDS011;43392;50.078;13.704;2024-03-17T07:42:04;12.20;;;3.65;;
56893;SDS011;43392;50.078;13.704;2024-03-17T07:44:32;12.52;;;3.50;;
56893;SDS011;43392;50.078;13.704;2024-03-17T07:47:00;6.13;;;2.80;;
56893;SDS011;43392;50.078;13.704;2024-03-17T07:49:29;11.13;;;3.50;;
56893;SDS011;43392;50.078;13.704;2024-03-17T07:51:55;10.80;;;3.95;;
56893;SDS011;43392;50.078;13.704;2024-03-17T07:54:23;9.15;;;4.40;;
56893;SDS011;43392;50.078;13.704;2024-03-17T07:56:51;8.57;;;3.08;;
56893;SDS011;43392;50.078;13.704;2024-03-17T07:59:17;8.60;;;3.20;;
56893;SDS011;43392;50.078;13.704;2024-03-17T08:01:44;10.32;;;3.40;;
56893;SDS011;43392;50.078;13.704;2024-03-17T08:04:11;9.80;;;2.95;;
56893;SDS011;43392;50.078;13.704;2024-03-17T08:06:38;10.38;;;3.50;;
56893;SDS011;43392;50.078;13.704;2024-03-17T08:09:05;14.70;;;5.03;;
56893;SDS011;43392;50.078;13.704;2024-03-17T08:11:33;9.02;;;4.22;;
56893;SDS011;43392;50.078;13.704;2024-03-17T08:13:59;8.98;;;3.50;;
56893;SDS011;43392;50.078;13.704;2024-03-17T08:16:26;8.52;;;3.95;;
56893;SDS011;43392;50.078;13.704;2024-03-17T08:18:53;7.47;;;3.10;;
56893;SDS011;43392;50.078;13.704;2024-03-17T08:21:19;8.85;;;3.45;;
56893;SDS011;43392;50.078;13.704;2024-03-17T08:23:46;9.25;;;2.92;;
56893;SDS011;43392;50.078;13.704;2024-03-17T08:26:12;8.27;;;3.10;;
56893;SDS011;43392;50.078;13.704;2024-03-17T08:28:39;12.60;;;5.03;;
56893;SDS011;43392;50.078;13.704;2024-03-17T08:31:05;9.68;;;3.70;;
56893;SDS011;43392;50.078;13.704;2024-03-17T08:33:32;10.88;;;4.65;;
56893;SDS011;43392;50.078;13.704;2024-03-17T08:35:59;8.02;;;3.90;;
56893;SDS011;43392;50.078;13.704;2024-03-17T08:38:28;9.48;;;3.50;;
56893;SDS011;43392;50.078;13.704;2024-03-17T08:40:56;7.78;;;3.00;;
56893;SDS011;43392;50.078;13.704;2024-03-17T08:43:23;7.32;;;2.80;;
56893;SDS011;43392;50.078;13.704;2024-03-17T08:45:56;7.90;;;2.67;;
56893;SDS011;43392;50.078;13.704;2024-03-17T08:48:28;5.22;;;2.25;;
56893;SDS011;43392;50.078;13.704;2024-03-17T08:50:57;7.43;;;2.70;;
56893;SDS011;43392;50.078;13.704;2024-03-17T08:53:25;8.02;;;2.53;;
56893;SDS011;43392;50.078;13.704;2024-03-17T08:55:52;7.43;;;2.60;;
56893;SDS011;43392;50.078;13.704;2024-03-17T08:58:19;5.68;;;2.22;;
56893;SDS011;43392;50.078;13.704;2024-03-17T09:00:46;6.95;;;2.42;;
56893;SDS011;43392;50.078;13.704;2024-03-17T09:03:13;7.60;;;2.47;;
56893;SDS011;43392;50.078;13.704;2024-03-17T09:05:40;8.90;;;2.22;;
56893;SDS011;43392;50.078;13.704;2024-03-17T09:08:09;6.53;;;2.67;;
56893;SDS011;43392;50.078;13.704;2024-03-17T09:10:42;5.70;;;2.22;;
56893;SDS011;43392;50.078;13.704;2024-03-17T09:13:16;5.68;;;2.20;;
56893;SDS011;43392;50.078;13.704;2024-03-17T09:15:53;5.82;;;2.53;;
56893;SDS011;43392;50.078;13.704;2024-03-17T09:18:21;9.38;;;3.30;;
56893;SDS011;43392;50.078;13.704;2024-03-17T09:20:59;4.88;;;2.20;;
56893;SDS011;43392;50.078;13.704;2024-03-17T09:23:27;4.65;;;2.58;;
56893;SDS011;43392;50.078;13.704;2024-03-17T09:26:12;4.95;;;2.20;;
56893;SDS011;43392;50.078;13.704;2024-03-17T09:28:41;8.25;;;2.78;;
56893;SDS011;43392;50.078;13.704;2024-03-17T09:31:08;7.55;;;2.60;;
56893;SDS011;43392;50.078;13.704;2024-03-17T09:33:36;8.57;;;2.35;;
56893;SDS011;43392;50.078;13.704;2024-03-17T09:36:05;6.10;;;2.60;;
56893;SDS011;43392;50.078;13.704;2024-03-17T09:38:33;6.13;;;2.80;;
56893;SDS011;43392;50.078;13.704;2024-03-17T09:41:01;4.97;;;2.35;;
56893;SDS011;43392;50.078;13.704;2024-03-17T09:43:29;7.90;;;2.70;;
56893;SDS011;43392;50.078;13.704;2024-03-17T09:45:58;9.50;;;3.42;;
56893;SDS011;43392;50.078;13.704;2024-03-17T09:48:25;9.57;;;3.00;;
56893;SDS011;43392;50.078;13.704;2024-03-17T09:53:23;11.15;;;4.10;;
56893;SDS011;43392;50.078;13.704;2024-03-17T09:55:51;9.93;;;3.67;;
56893;SDS011;43392;50.078;13.704;2024-03-17T09:58:25;5.35;;;2.50;;
56893;SDS011;43392;50.078;13.704;2024-03-17T10:00:51;6.25;;;2.50;;
56893;SDS011;43392;50.078;13.704;2024-03-17T10:06:16;6.88;;;2.97;;
56893;SDS011;43392;50.078;13.704;2024-03-17T10:11:18;10.52;;;2.75;;
56893;SDS011;43392;50.078;13.704;2024-03-17T10:14:05;7.40;;;2.60;;
56893;SDS011;43392;50.078;13.704;2024-03-17T10:16:35;6.63;;;2.90;;
56893;SDS011;43392;50.078;13.704;2024-03-17T10:19:15;5.38;;;2.78;;
56893;SDS011;43392;50.078;13.704;2024-03-17T10:21:47;8.88;;;2.72;;
56893;SDS011;43392;50.078;13.704;2024-03-17T10:24:21;7.47;;;2.58;;
56893;SDS011;43392;50.078;13.704;2024-03-17T10:29:30;9.82;;;4.63;;
56893;SDS011;43392;50.078;13.704;2024-03-17T10:34:27;7.20;;;2.67;;
56893;SDS011;43392;50.078;13.704;2024-03-17T10:37:19;10.90;;;4.70;;
56893;SDS011;43392;50.078;13.704;2024-03-17T10:39:50;7.30;;;3.40;;
56893;SDS011;43392;50.078;13.704;2024-03-17T10:42:24;5.40;;;2.70;;
56893;SDS011;43392;50.078;13.704;2024-03-17T10:44:53;9.98;;;4.53;;
56893;SDS011;43392;50.078;13.704;2024-03-17T10:49:47;6.00;;;3.28;;
56893;SDS011;43392;50.078;13.704;2024-03-17T10:52:19;7.90;;;3.03;;
56893;SDS011;43392;50.078;13.704;2024-03-17T10:54:49;7.15;;;2.67;;
56893;SDS011;43392;50.078;13.704;2024-03-17T10:59:55;6.82;;;2.72;;
56893;SDS011;43392;50.078;13.704;2024-03-17T11:02:24;4.72;;;2.47;;
56893;SDS011;43392;50.078;13.704;2024-03-17T11:04:56;5.93;;;2.92;;
56893;SDS011;43392;50.078;13.704;2024-03-17T11:07:25;6.50;;;3.20;;
56893;SDS011;43392;50.078;13.704;2024-03-17T11:09:53;6.82;;;3.20;;
56893;SDS011;43392;50.078;13.704;2024-03-17T11:12:39;8.48;;;3.33;;
56893;SDS011;43392;50.078;13.704;2024-03-17T11:17:52;6.00;;;2.80;;
56893;SDS011;43392;50.078;13.704;2024-03-17T11:20:23;8.55;;;3.28;;
56893;SDS011;43392;50.078;13.704;2024-03-17T11:22:51;8.10;;;3.45;;
56893;SDS011;43392;50.078;13.704;2024-03-17T11:41:35;7.22;;;3.45;;
56893;SDS011;43392;50.078;13.704;2024-03-17T11:44:16;8.70;;;3.25;;
56893;SDS011;43392;50.078;13.704;2024-03-17T11:47:00;7.90;;;3.75;;
56893;SDS011;43392;50.078;13.704;2024-03-17T11:49:41;15.75;;;7.25;;
56893;SDS011;43392;50.078;13.704;2024-03-17T11:52:12;13.70;;;7.15;;
56893;SDS011;43392;50.078;13.704;2024-03-17T11:54:40;10.30;;;4.40;;
56893;SDS011;43392;50.078;13.704;2024-03-17T11:57:11;11.20;;;4.38;;
56893;SDS011;43392;50.078;13.704;2024-03-17T12:04:46;17.67;;;6.78;;
56893;SDS011;43392;50.078;13.704;2024-03-17T12:07:13;33.28;;;15.55;;
56893;SDS011;43392;50.078;13.704;2024-03-17T12:09:41;10.45;;;5.30;;
56893;SDS011;43392;50.078;13.704;2024-03-17T12:12:29;10.80;;;5.05;;
56893;SDS011;43392;50.078;13.704;2024-03-17T12:15:00;11.93;;;5.20;;
56893;SDS011;43392;50.078;13.704;2024-03-17T12:17:26;7.88;;;4.38;;
56893;SDS011;43392;50.078;13.704;2024-03-17T12:19:52;10.80;;;4.88;;
56893;SDS011;43392;50.078;13.704;2024-03-17T12:22:19;9.10;;;3.33;;
56893;SDS011;43392;50.078;13.704;2024-03-17T12:24:48;12.35;;;5.50;;
56893;SDS011;43392;50.078;13.704;2024-03-17T12:27:18;6.07;;;2.92;;
56893;SDS011;43392;50.078;13.704;2024-03-17T12:29:47;7.15;;;3.08;;
56893;SDS011;43392;50.078;13.704;2024-03-17T12:32:14;20.63;;;8.02;;
56893;SDS011;43392;50.078;13.704;2024-03-17T12:34:43;9.82;;;4.55;;
56893;SDS011;43392;50.078;13.704;2024-03-17T12:37:20;10.25;;;4.60;;
56893;SDS011;43392;50.078;13.704;2024-03-17T12:39:48;13.65;;;6.57;;
56893;SDS011;43392;50.078;13.704;2024-03-17T12:42:15;7.15;;;3.33;;
56893;SDS011;43392;50.078;13.704;2024-03-17T12:44:52;10.95;;;5.18;;
56893;SDS011;43392;50.078;13.704;2024-03-17T12:50:05;7.32;;;3.47;;
56893;SDS011;43392;50.078;13.704;2024-03-17T12:52:38;7.55;;;2.70;;
56893;SDS011;43392;50.078;13.704;2024-03-17T12:55:08;8.40;;;3.85;;
56893;SDS011;43392;50.078;13.704;2024-03-17T13:00:45;7.60;;;4.80;;
56893;SDS011;43392;50.078;13.704;2024-03-17T13:03:23;11.52;;;6.55;;
56893;SDS011;43392;50.078;13.704;2024-03-17T13:05:51;9.88;;;4.60;;
56893;SDS011;43392;50.078;13.704;2024-03-17T13:08:18;8.20;;;3.00;;
56893;SDS011;43392;50.078;13.704;2024-03-17T13:10:44;10.82;;;7.35;;
56893;SDS011;43392;50.078;13.704;2024-03-17T13:13:12;10.20;;;3.30;;
56893;SDS011;43392;50.078;13.704;2024-03-17T13:15:40;7.32;;;3.05;;
56893;SDS011;43392;50.078;13.704;2024-03-17T13:18:08;7.30;;;2.80;;
56893;SDS011;43392;50.078;13.704;2024-03-17T13:20:34;5.65;;;2.70;;
56893;SDS011;43392;50.078;13.704;2024-03-17T13:23:01;7.80;;;2.80;;
56893;SDS011;43392;50.078;13.704;2024-03-17T13:25:29;6.22;;;3.08;;
56893;SDS011;43392;50.078;13.704;2024-03-17T13:27:59;8.40;;;2.78;;
56893;SDS011;43392;50.078;13.704;2024-03-17T13:30:28;3.55;;;2.10;;
56893;SDS011;43392;50.078;13.704;2024-03-17T13:32:56;5.40;;;2.00;;
56893;SDS011;43392;50.078;13.704;2024-03-17T13:35:27;4.28;;;2.22;;
56893;SDS011;43392;50.078;13.704;2024-03-17T13:37:56;4.40;;;2.15;;
56893;SDS011;43392;50.078;13.704;2024-03-17T13:40:24;6.57;;;2.40;;
56893;SDS011;43392;50.078;13.704;2024-03-17T13:42:52;6.03;;;2.15;;
56893;SDS011;43392;50.078;13.704;2024-03-17T13:45:20;6.38;;;2.80;;
56893;SDS011;43392;50.078;13.704;2024-03-17T13:47:56;5.40;;;2.33;;
56893;SDS011;43392;50.078;13.704;2024-03-17T13:50:24;6.13;;;2.30;;
56893;SDS011;43392;50.078;13.704;2024-03-17T13:52:51;5.65;;;2.58;;
56893;SDS011;43392;50.078;13.704;2024-03-17T13:55:19;4.88;;;2.53;;
56893;SDS011;43392;50.078;13.704;2024-03-17T13:57:49;5.00;;;2.47;;
56893;SDS011;43392;50.078;13.704;2024-03-17T14:00:17;5.60;;;2.08;;
56893;SDS011;43392;50.078;13.704;2024-03-17T14:02:46;5.55;;;2.33;;
56893;SDS011;43392;50.078;13.704;2024-03-17T14:05:16;6.80;;;2.75;;
56893;SDS011;43392;50.078;13.704;2024-03-17T14:07:44;7.15;;;3.10;;
56893;SDS011;43392;50.078;13.704;2024-03-17T14:10:13;6.18;;;2.53;;
56893;SDS011;43392;50.078;13.704;2024-03-17T14:12:42;4.95;;;2.28;;
56893;SDS011;43392;50.078;13.704;2024-03-17T14:15:10;5.43;;;2.35;;
56893;SDS011;43392;50.078;13.704;2024-03-17T14:17:39;4.13;;;2.28;;
56893;SDS011;43392;50.078;13.704;2024-03-17T14:20:07;4.72;;;2.40;;
56893;SDS011;43392;50.078;13.704;2024-03-17T14:22:38;5.80;;;2.35;;
56893;SDS011;43392;50.078;13.704;2024-03-17T14:25:05;7.43;;;2.80;;
56893;SDS011;43392;50.078;13.704;2024-03-17T14:27:32;7.47;;;2.58;;
56893;SDS011;43392;50.078;13.704;2024-03-17T14:29:59;7.13;;;2.45;;
56893;SDS011;43392;50.078;13.704;2024-03-17T14:32:26;7.55;;;3.08;;
56893;SDS011;43392;50.078;13.704;2024-03-17T14:34:53;6.25;;;3.03;;
56893;SDS011;43392;50.078;13.704;2024-03-17T14:37:20;6.32;;;2.60;;
56893;SDS011;43392;50.078;13.704;2024-03-17T14:39:47;6.28;;;2.60;;
56893;SDS011;43392;50.078;13.704;2024-03-17T14:42:14;6.18;;;2.70;;
56893;SDS011;43392;50.078;13.704;2024-03-17T14:44:41;7.80;;;2.75;;
56893;SDS011;43392;50.078;13.704;2024-03-17T14:47:08;7.15;;;3.10;;
56893;SDS011;43392;50.078;13.704;2024-03-17T14:49:36;9.55;;;3.22;;
56893;SDS011;43392;50.078;13.704;2024-03-17T14:52:02;5.68;;;2.55;;
56893;SDS011;43392;50.078;13.704;2024-03-17T14:54:30;5.97;;;2.95;;
56893;SDS011;43392;50.078;13.704;2024-03-17T14:56:57;7.63;;;3.22;;
56893;SDS011;43392;50.078;13.704;2024-03-17T14:59:24;5.43;;;2.55;;
56893;SDS011;43392;50.078;13.704;2024-03-17T15:01:50;5.95;;;2.55;;
56893;SDS011;43392;50.078;13.704;2024-03-17T15:04:16;6.93;;;2.60;;
56893;SDS011;43392;50.078;13.704;2024-03-17T15:06:44;12.40;;;3.10;;
56893;SDS011;43392;50.078;13.704;2024-03-17T15:09:11;6.65;;;2.80;;
56893;SDS011;43392;50.078;13.704;2024-03-17T15:11:38;9.88;;;3.20;;
56893;SDS011;43392;50.078;13.704;2024-03-17T15:14:05;6.80;;;2.85;;
56893;SDS011;43392;50.078;13.704;2024-03-17T15:16:35;7.25;;;3.35;;
56893;SDS011;43392;50.078;13.704;2024-03-17T15:19:03;6.90;;;3.00;;